PWSweather.com
Personal Weather Stations
Station Observations
UWIDEPER1
Brown County, Depere, WI 54115

Brown CountyDepere, WI 54115

Lat: 44.44, Lon: -88.05

Elevation: 610

Station Type: Acurite 5in1

Latest ConditionsUpdated 6:35:01 AM CDT Thursday, Apr 26, 2018
Currently Today's Max Today's Min Today's Average
Temperature 37.8°F3.2°C 37.8°F3.2°C 33.4°F0.8°C 35.5°F1.9°C
Dew Point 33.9°F1.1°C 34.2°F1.2°C 28.3°F-2.1°C 31.0°F-0.6°C
Winds 3.5 mph SSW5.6 kmh SSW 3.5 mph SSW5.6 kmh SSW - 1.1 mph 1.8 kmh
Wind Gusts 3.5 mph5.6 kmh 3.5 mph5.6 kmh - -
Humidity 86% 90% 76% 84%
Pressure 29.95 in1014.2 mb 29.98 in1015.2 mb 29.94 in1013.9 mb -
Hour Temp Dew Point Humidity Winds Wind Gusts Pressure Precip Precip Rate Daily Precip Total
06:35 AM 37.8°F3.2°C 33.9°F1.1°C 86% 3.5 mph SSW5.6 kmh SSW 3.5 mph5.6 kmh 29.95 in1014.2 mb - 0.00 in0.0 mm 0.00 in0.0 mm
06:30 AM 37.4°F3.0°C 34.2°F1.2°C 88% 2.3 mph SSW3.7 kmh SSW 3.5 mph5.6 kmh 29.94 in1013.9 mb - 0.00 in0.0 mm 0.00 in0.0 mm
06:25 AM 37.4°F3.0°C 34.2°F1.2°C 88% 2.3 mph SSW3.7 kmh SSW 3.5 mph5.6 kmh 29.94 in1013.9 mb - 0.00 in0.0 mm 0.00 in0.0 mm
06:20 AM 37.0°F2.8°C 33.8°F1.0°C 88% 2.3 mph S3.7 kmh S 2.3 mph3.7 kmh 29.94 in1013.9 mb - 0.00 in0.0 mm 0.00 in0.0 mm
06:15 AM 36.9°F2.7°C 33.6°F0.9°C 88% 2.3 mph S3.7 kmh S 2.3 mph3.7 kmh 29.94 in1013.9 mb - 0.00 in0.0 mm 0.00 in0.0 mm
06:10 AM 36.7°F2.6°C 33.5°F0.8°C 88% 2.3 mph S3.7 kmh S 3.5 mph5.6 kmh 29.94 in1013.9 mb - 0.00 in0.0 mm 0.00 in0.0 mm
06:00 AM 36.1°F2.3°C 33.5°F0.8°C 90% 2.3 mph SSW3.7 kmh SSW 3.5 mph5.6 kmh 29.94 in1013.9 mb - 0.00 in0.0 mm 0.00 in0.0 mm
05:55 AM 36.0°F2.2°C 33.4°F0.8°C 90% 2.3 mph S3.7 kmh S 3.5 mph5.6 kmh 29.94 in1013.9 mb - 0.00 in0.0 mm 0.00 in0.0 mm
05:50 AM 35.8°F2.1°C 33.1°F0.6°C 90% 1.2 mph S1.9 kmh S 2.3 mph3.7 kmh 29.94 in1013.9 mb - 0.00 in0.0 mm 0.00 in0.0 mm
05:45 AM 35.4°F1.9°C 32.2°F0.1°C 88% 1.2 mph SSE1.9 kmh SSE 2.3 mph3.7 kmh 29.94 in1013.9 mb - 0.00 in0.0 mm 0.00 in0.0 mm
05:40 AM 35.4°F1.9°C 32.2°F0.1°C 88% 1.2 mph S1.9 kmh S 1.2 mph1.9 kmh 29.94 in1013.9 mb - 0.00 in0.0 mm 0.00 in0.0 mm
05:35 AM 35.4°F1.9°C 32.2°F0.1°C 88% 1.2 mph S1.9 kmh S 2.3 mph3.7 kmh 29.94 in1013.9 mb - 0.00 in0.0 mm 0.00 in0.0 mm
05:30 AM 35.4°F1.9°C 32.2°F0.1°C 88% 2.3 mph SSW3.7 kmh SSW 2.3 mph3.7 kmh 29.94 in1013.9 mb - 0.00 in0.0 mm 0.00 in0.0 mm
05:25 AM 35.4°F1.9°C 32.2°F0.1°C 88% 1.2 mph SSE1.9 kmh SSE 2.3 mph3.7 kmh 29.94 in1013.9 mb - 0.00 in0.0 mm 0.00 in0.0 mm
05:20 AM 35.8°F2.1°C 32.6°F0.3°C 88% 2.3 mph SW3.7 kmh SW 2.3 mph3.7 kmh 29.94 in1013.9 mb - 0.00 in0.0 mm 0.00 in0.0 mm
05:15 AM 35.4°F1.9°C 32.2°F0.1°C 88% 1.2 mph SSW1.9 kmh SSW 2.3 mph3.7 kmh 29.95 in1014.2 mb - 0.00 in0.0 mm 0.00 in0.0 mm
05:10 AM 35.4°F1.9°C 32.2°F0.1°C 88% 1.2 mph SE1.9 kmh SE 2.3 mph3.7 kmh 29.94 in1013.9 mb - 0.00 in0.0 mm 0.00 in0.0 mm
05:00 AM 35.8°F2.1°C 32.6°F0.3°C 88% 1.2 mph SSW1.9 kmh SSW 2.3 mph3.7 kmh 29.95 in1014.2 mb - 0.00 in0.0 mm 0.00 in0.0 mm
04:55 AM 35.8°F2.1°C 32.6°F0.3°C 88% 2.3 mph S3.7 kmh S 2.3 mph3.7 kmh 29.95 in1014.2 mb - 0.00 in0.0 mm 0.00 in0.0 mm
04:50 AM 35.8°F2.1°C 32.6°F0.3°C 88% 2.3 mph S3.7 kmh S 3.5 mph5.6 kmh 29.96 in1014.6 mb - 0.00 in0.0 mm 0.00 in0.0 mm
04:45 AM 35.8°F2.1°C 32.6°F0.3°C 88% 2.3 mph S3.7 kmh S 2.3 mph3.7 kmh 29.95 in1014.2 mb - 0.00 in0.0 mm 0.00 in0.0 mm
04:40 AM 35.8°F2.1°C 32.6°F0.3°C 88% 1.2 mph SW1.9 kmh SW 2.3 mph3.7 kmh 29.95 in1014.2 mb - 0.00 in0.0 mm 0.00 in0.0 mm
04:35 AM 35.8°F2.1°C 32.6°F0.3°C 88% 2.3 mph SW3.7 kmh SW 2.3 mph3.7 kmh 29.95 in1014.2 mb - 0.00 in0.0 mm 0.00 in0.0 mm
04:30 AM 35.8°F2.1°C 32.6°F0.3°C 88% 1.2 mph SW1.9 kmh SW 2.3 mph3.7 kmh 29.96 in1014.6 mb - 0.00 in0.0 mm 0.00 in0.0 mm
04:25 AM 36.0°F2.2°C 32.8°F0.4°C 88% 1.2 mph S1.9 kmh S 2.3 mph3.7 kmh 29.95 in1014.2 mb - 0.00 in0.0 mm 0.00 in0.0 mm
04:20 AM 36.1°F2.3°C 32.4°F0.2°C 86% 1.2 mph S1.9 kmh S 3.5 mph5.6 kmh 29.96 in1014.6 mb - 0.00 in0.0 mm 0.00 in0.0 mm
04:15 AM 36.1°F2.3°C 32.4°F0.2°C 86% 1.2 mph S1.9 kmh S 2.3 mph3.7 kmh 29.95 in1014.2 mb - 0.00 in0.0 mm 0.00 in0.0 mm
04:10 AM 36.1°F2.3°C 32.4°F0.2°C 86% 2.3 mph SE3.7 kmh SE 2.3 mph3.7 kmh 29.96 in1014.6 mb - 0.00 in0.0 mm 0.00 in0.0 mm
04:00 AM 36.1°F2.3°C 32.4°F0.2°C 86% 1.2 mph ESE1.9 kmh ESE 2.3 mph3.7 kmh 29.95 in1014.2 mb - 0.00 in0.0 mm 0.00 in0.0 mm
03:55 AM 36.1°F2.3°C 32.4°F0.2°C 86% 2.3 mph ESE3.7 kmh ESE 2.3 mph3.7 kmh 29.96 in1014.6 mb - 0.00 in0.0 mm 0.00 in0.0 mm
03:50 AM 36.0°F2.2°C 32.2°F0.1°C 86% 1.2 mph ESE1.9 kmh ESE 3.5 mph5.6 kmh 29.95 in1014.2 mb - 0.00 in0.0 mm 0.00 in0.0 mm
03:45 AM 36.1°F2.3°C 32.4°F0.2°C 86% 2.3 mph ESE3.7 kmh ESE 3.5 mph5.6 kmh 29.96 in1014.6 mb - 0.00 in0.0 mm 0.00 in0.0 mm
03:40 AM 36.1°F2.3°C 32.4°F0.2°C 86% 1.2 mph ESE1.9 kmh ESE 3.5 mph5.6 kmh 29.95 in1014.2 mb - 0.00 in0.0 mm 0.00 in0.0 mm
03:35 AM 35.8°F2.1°C 32.0°F0.0°C 86% 1.2 mph ESE1.9 kmh ESE 2.3 mph3.7 kmh 29.95 in1014.2 mb - 0.00 in0.0 mm 0.00 in0.0 mm
03:30 AM 35.9°F2.2°C 31.9°F-0.1°C 85% 1.2 mph ESE1.9 kmh ESE 2.3 mph3.7 kmh 29.95 in1014.2 mb - 0.00 in0.0 mm 0.00 in0.0 mm
03:25 AM 35.4°F1.9°C 31.4°F-0.3°C 85% 1.2 mph ESE1.9 kmh ESE 2.3 mph3.7 kmh 29.94 in1013.9 mb - 0.00 in0.0 mm 0.00 in0.0 mm
03:20 AM 35.4°F1.9°C 31.4°F-0.3°C 85% 2.3 mph ESE3.7 kmh ESE 2.3 mph3.7 kmh 29.95 in1014.2 mb - 0.00 in0.0 mm 0.00 in0.0 mm
03:15 AM 35.1°F1.7°C 30.4°F-0.9°C 83% 2.3 mph ESE3.7 kmh ESE 2.3 mph3.7 kmh 29.95 in1014.2 mb - 0.00 in0.0 mm 0.00 in0.0 mm
03:10 AM 34.5°F1.4°C 29.9°F-1.2°C 83% 1.2 mph ESE1.9 kmh ESE 2.3 mph3.7 kmh 29.95 in1014.2 mb - 0.00 in0.0 mm 0.00 in0.0 mm
03:00 AM 33.9°F1.1°C 29.3°F-1.5°C 83% Calm Calm 1.2 mph1.9 kmh 29.95 in1014.2 mb - 0.00 in0.0 mm 0.00 in0.0 mm
02:55 AM 33.4°F0.8°C 28.8°F-1.8°C 83% Calm Calm -- 29.95 in1014.2 mb - 0.00 in0.0 mm 0.00 in0.0 mm
02:50 AM 33.4°F0.8°C 28.8°F-1.8°C 83% Calm Calm -- 29.95 in1014.2 mb - 0.00 in0.0 mm 0.00 in0.0 mm
02:45 AM 33.8°F1.0°C 29.2°F-1.6°C 83% Calm Calm 1.2 mph1.9 kmh 29.95 in1014.2 mb - 0.00 in0.0 mm 0.00 in0.0 mm
02:40 AM 33.8°F1.0°C 29.2°F-1.6°C 83% Calm Calm -- 29.95 in1014.2 mb - 0.00 in0.0 mm 0.00 in0.0 mm
02:35 AM 34.0°F1.1°C 28.8°F-1.8°C 81% Calm Calm -- 29.95 in1014.2 mb - 0.00 in0.0 mm 0.00 in0.0 mm
02:30 AM 34.1°F1.2°C 28.9°F-1.7°C 81% Calm Calm -- 29.96 in1014.6 mb - 0.00 in0.0 mm 0.00 in0.0 mm
02:25 AM 34.2°F1.2°C 28.9°F-1.7°C 81% Calm Calm -- 29.96 in1014.6 mb - 0.00 in0.0 mm 0.00 in0.0 mm
02:20 AM 34.2°F1.2°C 28.9°F-1.7°C 81% Calm Calm -- 29.96 in1014.6 mb - 0.00 in0.0 mm 0.00 in0.0 mm
02:15 AM 34.2°F1.2°C 28.9°F-1.7°C 81% Calm Calm -- 29.96 in1014.6 mb - 0.00 in0.0 mm 0.00 in0.0 mm
02:10 AM 34.2°F1.2°C 28.6°F-1.9°C 80% Calm Calm -- 29.96 in1014.6 mb - 0.00 in0.0 mm 0.00 in0.0 mm
02:00 AM 35.1°F1.7°C 29.5°F-1.4°C 80% Calm Calm -- 29.96 in1014.6 mb - 0.00 in0.0 mm 0.00 in0.0 mm
01:55 AM 35.1°F1.7°C 29.5°F-1.4°C 80% Calm Calm -- 29.96 in1014.6 mb - 0.00 in0.0 mm 0.00 in0.0 mm
01:50 AM 35.1°F1.7°C 29.5°F-1.4°C 80% 1.2 mph ESE1.9 kmh ESE 1.2 mph1.9 kmh 29.96 in1014.6 mb - 0.00 in0.0 mm 0.00 in0.0 mm
01:45 AM 35.1°F1.7°C 29.5°F-1.4°C 80% 1.2 mph ESE1.9 kmh ESE 1.2 mph1.9 kmh 29.96 in1014.6 mb - 0.00 in0.0 mm 0.00 in0.0 mm
01:40 AM 35.4°F1.9°C 29.6°F-1.3°C 79% 1.2 mph ESE1.9 kmh ESE 1.2 mph1.9 kmh 29.96 in1014.6 mb - 0.00 in0.0 mm 0.00 in0.0 mm
01:35 AM 35.4°F1.9°C 29.6°F-1.3°C 79% 1.2 mph ESE1.9 kmh ESE 2.3 mph3.7 kmh 29.96 in1014.6 mb - 0.00 in0.0 mm 0.00 in0.0 mm
01:30 AM 35.9°F2.2°C 30.0°F-1.1°C 79% 2.3 mph ESE3.7 kmh ESE 3.5 mph5.6 kmh 29.96 in1014.6 mb - 0.00 in0.0 mm 0.00 in0.0 mm
01:25 AM 35.4°F1.9°C 29.6°F-1.3°C 79% 1.2 mph ESE1.9 kmh ESE 2.3 mph3.7 kmh 29.96 in1014.6 mb - 0.00 in0.0 mm 0.00 in0.0 mm
01:20 AM 35.4°F1.9°C 29.6°F-1.3°C 79% 2.3 mph ESE3.7 kmh ESE 2.3 mph3.7 kmh 29.96 in1014.6 mb - 0.00 in0.0 mm 0.00 in0.0 mm
01:15 AM 35.4°F1.9°C 29.6°F-1.3°C 79% 1.2 mph ESE1.9 kmh ESE 2.3 mph3.7 kmh 29.97 in1014.9 mb - 0.00 in0.0 mm 0.00 in0.0 mm
01:10 AM 35.3°F1.8°C 29.4°F-1.4°C 79% 1.2 mph ESE1.9 kmh ESE 3.5 mph5.6 kmh 29.96 in1014.6 mb - 0.00 in0.0 mm 0.00 in0.0 mm
01:00 AM 34.9°F1.6°C 29.0°F-1.7°C 79% Calm Calm -- 29.97 in1014.9 mb - 0.00 in0.0 mm 0.00 in0.0 mm
12:55 AM 35.1°F1.7°C 29.2°F-1.6°C 79% Calm Calm -- 29.97 in1014.9 mb - 0.00 in0.0 mm 0.00 in0.0 mm
12:50 AM 35.1°F1.7°C 29.2°F-1.6°C 79% Calm Calm -- 29.97 in1014.9 mb - 0.00 in0.0 mm 0.00 in0.0 mm
12:45 AM 35.1°F1.7°C 29.2°F-1.6°C 79% Calm Calm 1.2 mph1.9 kmh 29.97 in1014.9 mb - 0.00 in0.0 mm 0.00 in0.0 mm
12:40 AM 34.9°F1.6°C 28.7°F-1.8°C 78% Calm Calm 1.2 mph1.9 kmh 29.97 in1014.9 mb - 0.00 in0.0 mm 0.00 in0.0 mm
12:35 AM 35.1°F1.7°C 28.3°F-2.1°C 76% Calm Calm -- 29.98 in1015.2 mb - 0.00 in0.0 mm 0.00 in0.0 mm
12:30 AM 35.4°F1.9°C 29.2°F-1.6°C 78% Calm Calm -- 29.97 in1014.9 mb - 0.00 in0.0 mm 0.00 in0.0 mm
12:25 AM 35.8°F2.1°C 29.0°F-1.7°C 76% Calm Calm -- 29.97 in1014.9 mb - 0.00 in0.0 mm 0.00 in0.0 mm
12:20 AM 36.0°F2.2°C 29.1°F-1.6°C 76% Calm Calm -- 29.97 in1014.9 mb - 0.00 in0.0 mm 0.00 in0.0 mm
12:15 AM 36.0°F2.2°C 29.1°F-1.6°C 76% Calm Calm 1.2 mph1.9 kmh 29.98 in1015.2 mb - 0.00 in0.0 mm 0.00 in0.0 mm
12:10 AM 36.1°F2.3°C 29.3°F-1.5°C 76% Calm Calm -- 29.98 in1015.2 mb - 0.00 in0.0 mm 0.00 in0.0 mm
12:00 AM 36.7°F2.6°C 29.8°F-1.2°C 76% 1.2 mph ESE1.9 kmh ESE -- 29.98 in1015.2 mb - 0.00 in0.0 mm 0.00 in0.0 mm